Time;durP1;ratioP1;P1;durP2;ratioP2;P2;SDS_P1;SDS_P2;PMS_P1;PMS_P2;Temp;Humidity;BMP_temperature;BMP_pressure;BME280_temperature;BME280_humidity;BME280_pressure;Samples;Min_cycle;Max_cycle;Signal;HPM_P1;HPM_P2
2021/10/21 06:21:20;;;;;;;6.57;2.10;;;;;;;;;;5054852;23;20430;-54
2021/10/21 06:23:46;;;;;;;7.30;2.15;;;;;;;;;;5033490;28;20403;-58
2021/10/21 06:26:13;;;;;;;7.13;1.95;;;;;;;;;;5039219;28;20402;-53
2021/10/21 06:28:40;;;;;;;7.03;2.05;;;;;;;;;;5021655;28;20485;-47
2021/10/21 06:31:06;;;;;;;6.93;1.98;;;;;;;;;;5015445;28;20476;-49
2021/10/21 06:33:32;;;;;;;6.95;2.20;;;;;;;;;;5033471;28;20379;-49
2021/10/21 06:35:58;;;;;;;7.63;2.20;;;;;;;;;;5054881;28;20455;-53
2021/10/21 06:38:25;;;;;;;6.60;2.17;;;;;;;;;;5053361;28;20371;-50
2021/10/21 06:40:51;;;;;;;7.35;2.28;;;;;;;;;;5062929;28;20887;-50
2021/10/21 06:43:17;;;;;;;7.47;2.08;;;;;;;;;;5054467;28;20451;-46
2021/10/21 06:45:44;;;;;;;5.90;2.08;;;;;;;;;;5033613;28;20392;-49
2021/10/21 06:48:10;;;;;;;5.93;2.03;;;;;;;;;;5016742;28;20460;-49
2021/10/21 06:50:36;;;;;;;10.13;2.33;;;;;;;;;;5062861;28;20405;-51
2021/10/21 06:53:02;;;;;;;7.27;2.33;;;;;;;;;;5035016;28;20382;-49
2021/10/21 06:55:28;;;;;;;9.03;2.37;;;;;;;;;;5052487;28;20386;-51
2021/10/21 06:57:59;;;;;;;5.72;2.30;;;;;;;;;;5065430;28;20389;-50
2021/10/21 07:00:26;;;;;;;5.18;2.20;;;;;;;;;;5047947;28;20445;-51
2021/10/21 07:02:52;;;;;;;5.50;2.08;;;;;;;;;;5060141;28;20375;-51
2021/10/21 07:05:21;;;;;;;5.35;2.08;;;;;;;;;;5040832;28;20389;-51
2021/10/21 07:07:47;;;;;;;6.50;2.30;;;;;;;;;;5064737;28;20373;-51
2021/10/21 07:10:14;;;;;;;5.65;1.95;;;;;;;;;;5053521;28;20394;-55
2021/10/21 07:12:41;;;;;;;7.00;2.33;;;;;;;;;;5072468;28;20372;-50
2021/10/21 07:15:09;;;;;;;5.93;2.22;;;;;;;;;;5051970;28;20430;-52
2021/10/21 07:17:36;;;;;;;4.83;2.00;;;;;;;;;;5052201;28;20456;-52
2021/10/21 07:20:05;;;;;;;5.68;2.15;;;;;;;;;;5039972;28;20412;-48
2021/10/21 07:22:32;;;;;;;5.97;2.08;;;;;;;;;;5021096;28;20417;-50
2021/10/21 07:25:01;;;;;;;6.00;2.20;;;;;;;;;;5034143;28;20382;-49
2021/10/21 07:27:27;;;;;;;6.13;2.20;;;;;;;;;;5072062;28;20444;-49
2021/10/21 07:29:53;;;;;;;8.27;2.20;;;;;;;;;;5037942;28;20699;-50
2021/10/21 07:32:19;;;;;;;7.35;2.30;;;;;;;;;;5039684;28;20393;-59
2021/10/21 07:34:46;;;;;;;9.13;2.40;;;;;;;;;;5030918;28;20742;-60
2021/10/21 07:37:12;;;;;;;6.57;2.53;;;;;;;;;;5034090;28;20858;-59
2021/10/21 07:39:40;;;;;;;8.35;2.55;;;;;;;;;;5034979;28;20684;-59
2021/10/21 07:42:06;;;;;;;7.03;2.22;;;;;;;;;;5041954;28;20897;-59
2021/10/21 07:44:51;;;;;;;7.50;2.35;;;;;;;;;;5033516;28;20385;-59
2021/10/21 07:47:18;;;;;;;8.45;2.20;;;;;;;;;;5032210;28;20400;-55
2021/10/21 07:49:44;;;;;;;6.97;2.30;;;;;;;;;;5034805;28;20504;-59
2021/10/21 07:52:11;;;;;;;5.57;2.10;;;;;;;;;;5031251;28;20377;-52
2021/10/21 07:54:37;;;;;;;4.68;2.10;;;;;;;;;;5032322;28;20464;-51
2021/10/21 07:57:05;;;;;;;6.43;2.10;;;;;;;;;;5050660;28;20377;-54
2021/10/21 07:59:32;;;;;;;8.30;2.30;;;;;;;;;;5056629;28;20739;-51
2021/10/21 08:01:58;;;;;;;7.10;2.15;;;;;;;;;;5039380;28;20755;-54
2021/10/21 08:04:28;;;;;;;6.78;2.28;;;;;;;;;;5050558;28;20690;-52
2021/10/21 08:06:56;;;;;;;5.72;2.35;;;;;;;;;;5052807;28;20431;-55
2021/10/21 08:09:22;;;;;;;5.23;2.00;;;;;;;;;;5050200;28;20397;-53
2021/10/21 08:11:50;;;;;;;6.63;2.20;;;;;;;;;;5032806;28;20397;-54
2021/10/21 08:14:16;;;;;;;6.22;2.03;;;;;;;;;;5032210;28;20389;-57
2021/10/21 08:16:43;;;;;;;5.78;2.25;;;;;;;;;;5033535;28;20457;-57
2021/10/21 08:19:09;;;;;;;5.30;1.80;;;;;;;;;;5030836;28;20389;-57
2021/10/21 08:21:35;;;;;;;5.57;2.00;;;;;;;;;;5034455;28;20901;-50
2021/10/21 08:24:02;;;;;;;6.93;2.40;;;;;;;;;;5031880;28;20389;-57
2021/10/21 08:26:29;;;;;;;5.85;2.00;;;;;;;;;;5031428;28;20381;-57
2021/10/21 08:28:55;;;;;;;5.07;2.10;;;;;;;;;;5021596;28;20377;-57
2021/10/21 08:31:22;;;;;;;5.63;1.90;;;;;;;;;;5047965;28;20409;-60
2021/10/21 08:33:49;;;;;;;5.00;2.00;;;;;;;;;;5032060;28;20493;-57
2021/10/21 08:36:17;;;;;;;5.28;1.77;;;;;;;;;;5033210;28;20389;-56
2021/10/21 08:38:43;;;;;;;5.50;1.90;;;;;;;;;;5032328;28;20385;-55
2021/10/21 08:41:13;;;;;;;5.90;2.20;;;;;;;;;;5049547;28;20455;-54
2021/10/21 08:43:39;;;;;;;6.70;2.30;;;;;;;;;;5042937;28;20380;-56
2021/10/21 08:46:05;;;;;;;6.07;1.92;;;;;;;;;;5048923;28;20837;-56
2021/10/21 08:48:32;;;;;;;4.43;1.80;;;;;;;;;;5032095;28;20470;-54
2021/10/21 08:50:58;;;;;;;4.78;1.80;;;;;;;;;;5031836;28;20392;-55
2021/10/21 08:53:27;;;;;;;5.28;2.15;;;;;;;;;;5051239;28;20409;-51
2021/10/21 08:55:53;;;;;;;5.68;1.70;;;;;;;;;;5046566;28;20373;-57
2021/10/21 08:58:19;;;;;;;6.17;1.70;;;;;;;;;;5031583;28;20444;-50
2021/10/21 09:00:55;;;;;;;5.63;1.80;;;;;;;;;;5039005;28;20514;-55
2021/10/21 09:03:44;;;;;;;7.35;2.22;;;;;;;;;;5039441;28;20468;-59
2021/10/21 09:06:26;;;;;;;6.07;2.05;;;;;;;;;;5039885;28;20745;-58
2021/10/21 09:08:52;;;;;;;6.43;2.00;;;;;;;;;;5038337;28;20402;-58
2021/10/21 09:11:21;;;;;;;5.85;1.98;;;;;;;;;;5056990;28;20884;-52
2021/10/21 09:13:48;;;;;;;6.30;2.22;;;;;;;;;;5035611;28;20860;-52
2021/10/21 09:16:18;;;;;;;6.88;2.13;;;;;;;;;;5013479;28;20383;-52
2021/10/21 09:18:46;;;;;;;6.43;2.33;;;;;;;;;;5044418;28;20381;-49
2021/10/21 09:21:31;;;;;;;5.72;1.80;;;;;;;;;;5030932;28;20531;-54
2021/10/21 09:23:58;;;;;;;5.60;1.95;;;;;;;;;;5048825;28;20499;-49
2021/10/21 09:26:25;;;;;;;7.28;2.10;;;;;;;;;;5031700;28;20400;-52
2021/10/21 09:28:51;;;;;;;7.00;2.22;;;;;;;;;;5044729;28;20381;-49
2021/10/21 09:31:17;;;;;;;8.15;2.42;;;;;;;;;;5061713;28;20376;-48
2021/10/21 09:33:56;;;;;;;7.22;2.20;;;;;;;;;;5056455;28;20379;-50
2021/10/21 09:36:23;;;;;;;8.07;2.22;;;;;;;;;;5037853;28;20700;-47
2021/10/21 09:38:51;;;;;;;7.85;2.35;;;;;;;;;;5042506;28;20385;-46
2021/10/21 09:41:18;;;;;;;8.45;2.58;;;;;;;;;;5051383;28;20445;-47
2021/10/21 09:43:45;;;;;;;8.55;2.50;;;;;;;;;;5031379;28;20393;-53
2021/10/21 09:46:31;;;;;;;9.02;2.40;;;;;;;;;;5024231;28;20754;-49
2021/10/21 09:49:15;;;;;;;8.32;2.72;;;;;;;;;;5039273;28;20390;-52
2021/10/21 09:51:41;;;;;;;9.13;2.40;;;;;;;;;;5038770;28;20462;-49
2021/10/21 09:54:07;;;;;;;7.97;2.70;;;;;;;;;;5054852;28;20473;-48
2021/10/21 09:56:52;;;;;;;7.82;2.70;;;;;;;;;;5048716;28;20362;-48
2021/10/21 09:59:24;;;;;;;6.68;2.22;;;;;;;;;;5061657;28;20377;-49
2021/10/21 10:01:50;;;;;;;7.18;2.25;;;;;;;;;;5060449;28;20422;-50
2021/10/21 10:04:17;;;;;;;10.23;3.40;;;;;;;;;;5036865;28;20376;-48
2021/10/21 10:06:43;;;;;;;10.13;3.88;;;;;;;;;;5038452;28;20394;-50
2021/10/21 10:09:09;;;;;;;9.07;3.75;;;;;;;;;;5061665;28;20374;-47
2021/10/21 10:11:37;;;;;;;8.93;3.58;;;;;;;;;;5060964;28;20384;-51
2021/10/21 10:14:04;;;;;;;11.65;3.63;;;;;;;;;;5030800;28;20378;-50
2021/10/21 10:16:32;;;;;;;8.25;3.13;;;;;;;;;;5042768;28;20382;-47
2021/10/21 10:18:58;;;;;;;7.85;2.70;;;;;;;;;;5014752;28;20498;-49
2021/10/21 10:21:35;;;;;;;8.20;2.50;;;;;;;;;;5029939;28;20544;-50
2021/10/21 10:24:03;;;;;;;7.97;2.40;;;;;;;;;;5060884;28;20381;-49
2021/10/21 10:26:48;;;;;;;8.25;2.42;;;;;;;;;;5042759;28;20395;-49
2021/10/21 10:29:16;;;;;;;6.70;1.88;;;;;;;;;;5030407;28;20377;-49
2021/10/21 10:31:43;;;;;;;7.43;2.33;;;;;;;;;;5061173;28;20888;-50
2021/10/21 10:34:30;;;;;;;6.47;2.00;;;;;;;;;;5029371;28;20390;-50
2021/10/21 10:36:56;;;;;;;6.38;2.00;;;;;;;;;;5030370;28;20394;-49
2021/10/21 10:39:43;;;;;;;5.25;1.83;;;;;;;;;;5028343;28;20373;-49
2021/10/21 10:42:09;;;;;;;4.75;1.60;;;;;;;;;;5053817;28;20440;-53
2021/10/21 10:44:35;;;;;;;6.25;1.85;;;;;;;;;;5049387;28;20393;-50
2021/10/21 10:47:01;;;;;;;5.40;1.60;;;;;;;;;;5044832;28;20381;-51
2021/10/21 10:49:39;;;;;;;6.20;2.00;;;;;;;;;;5043493;28;20496;-50
2021/10/21 10:52:05;;;;;;;5.70;1.70;;;;;;;;;;5043670;28;20379;-50
2021/10/21 10:54:47;;;;;;;3.80;1.35;;;;;;;;;;5043323;28;20382;-51
2021/10/21 10:57:13;;;;;;;4.43;1.50;;;;;;;;;;5039383;28;20399;-52
2021/10/21 10:59:41;;;;;;;5.10;1.30;;;;;;;;;;5049710;28;20389;-49
2021/10/21 11:02:28;;;;;;;5.00;1.60;;;;;;;;;;5027984;28;20782;-49
2021/10/21 11:04:54;;;;;;;4.57;1.53;;;;;;;;;;5020341;28;20465;-50
2021/10/21 11:07:24;;;;;;;3.38;1.20;;;;;;;;;;5043165;28;20378;-55
2021/10/21 11:09:51;;;;;;;4.90;1.58;;;;;;;;;;5029129;28;20484;-50
2021/10/21 11:12:20;;;;;;;4.28;1.38;;;;;;;;;;5042760;28;20396;-46
2021/10/21 11:14:53;;;;;;;4.78;1.48;;;;;;;;;;5047832;28;20370;-48
2021/10/21 11:17:38;;;;;;;3.78;1.30;;;;;;;;;;5042111;28;20390;-48
2021/10/21 11:20:05;;;;;;;4.23;1.40;;;;;;;;;;5038857;28;20416;-47
2021/10/21 11:22:31;;;;;;;4.10;1.30;;;;;;;;;;5042711;28;20475;-48
2021/10/21 11:24:59;;;;;;;4.50;1.33;;;;;;;;;;5059477;28;20886;-50
2021/10/21 11:27:30;;;;;;;3.28;1.13;;;;;;;;;;5036302;28;20477;-48
2021/10/21 11:30:08;;;;;;;4.68;1.20;;;;;;;;;;5035985;28;20925;-47
2021/10/21 11:32:35;;;;;;;3.30;1.30;;;;;;;;;;5057939;28;20411;-48
2021/10/21 11:35:04;;;;;;;3.63;1.00;;;;;;;;;;5043020;28;20463;-47
2021/10/21 11:37:36;;;;;;;2.80;1.13;;;;;;;;;;5042921;28;20736;-50
2021/10/21 11:40:03;;;;;;;2.97;1.00;;;;;;;;;;5039559;28;20411;-55
2021/10/21 11:42:30;;;;;;;2.70;1.00;;;;;;;;;;5041402;28;20428;-56
2021/10/21 11:45:07;;;;;;;5.80;1.30;;;;;;;;;;5051270;28;20852;-50
2021/10/21 11:47:34;;;;;;;4.55;1.20;;;;;;;;;;5032592;28;20397;-56
2021/10/21 11:50:01;;;;;;;4.77;1.20;;;;;;;;;;5046075;28;20951;-52
2021/10/21 11:52:43;;;;;;;3.60;1.13;;;;;;;;;;5033145;28;20386;-51
2021/10/21 11:55:26;;;;;;;3.50;0.90;;;;;;;;;;5061119;28;20722;-50
2021/10/21 11:57:52;;;;;;;3.85;0.90;;;;;;;;;;5056255;28;20724;-51
2021/10/21 12:00:20;;;;;;;4.55;1.10;;;;;;;;;;5058839;28;20785;-54
2021/10/21 12:02:46;;;;;;;5.10;1.10;;;;;;;;;;5046144;28;20417;-52
2021/10/21 12:05:13;;;;;;;2.63;0.95;;;;;;;;;;5050878;28;20373;-53
2021/10/21 12:07:39;;;;;;;3.15;0.88;;;;;;;;;;5063964;28;20564;-53
2021/10/21 12:10:05;;;;;;;3.20;0.93;;;;;;;;;;5045512;28;20388;-49
2021/10/21 12:12:42;;;;;;;2.45;0.82;;;;;;;;;;5057251;28;20364;-52
2021/10/21 12:15:09;;;;;;;3.08;0.90;;;;;;;;;;5057268;28;20377;-51
2021/10/21 12:17:36;;;;;;;3.90;1.05;;;;;;;;;;5037619;28;20445;-52
2021/10/21 12:20:02;;;;;;;3.67;1.00;;;;;;;;;;5025536;28;20471;-54
2021/10/21 12:22:31;;;;;;;4.60;1.17;;;;;;;;;;5012639;28;20426;-52
2021/10/21 12:24:57;;;;;;;3.67;1.20;;;;;;;;;;5026105;28;20389;-51
2021/10/21 12:27:24;;;;;;;3.00;1.00;;;;;;;;;;5032335;28;20378;-52
2021/10/21 12:29:51;;;;;;;2.83;0.85;;;;;;;;;;5046087;28;20386;-52
2021/10/21 12:32:21;;;;;;;2.77;0.83;;;;;;;;;;5039936;28;20383;-51
2021/10/21 12:34:47;;;;;;;3.80;1.00;;;;;;;;;;5057092;28;20374;-49
2021/10/21 12:37:18;;;;;;;3.63;0.90;;;;;;;;;;5043869;28;20382;-52
2021/10/21 12:39:44;;;;;;;3.90;1.00;;;;;;;;;;5063400;28;20372;-53
2021/10/21 12:42:18;;;;;;;2.30;1.00;;;;;;;;;;5055387;28;20429;-54
2021/10/21 12:44:44;;;;;;;5.85;1.00;;;;;;;;;;5050051;28;20365;-48
2021/10/21 12:47:16;;;;;;;4.00;1.20;;;;;;;;;;5045297;28;20394;-50
2021/10/21 12:50:03;;;;;;;2.80;0.90;;;;;;;;;;5049324;28;20396;-49
2021/10/21 12:52:38;;;;;;;1.95;0.77;;;;;;;;;;5063659;28;20434;-48
2021/10/21 12:55:08;;;;;;;2.00;0.63;;;;;;;;;;5059679;28;20475;-48
2021/10/21 12:57:41;;;;;;;4.35;1.00;;;;;;;;;;5057208;28;20463;-51
2021/10/21 13:00:07;;;;;;;2.67;0.82;;;;;;;;;;5059235;28;20370;-48
2021/10/21 13:02:36;;;;;;;4.38;1.10;;;;;;;;;;5050041;28;20859;-50
2021/10/21 13:05:03;;;;;;;2.88;0.90;;;;;;;;;;5030441;28;20386;-54
2021/10/21 13:07:29;;;;;;;1.92;0.70;;;;;;;;;;5050070;28;20860;-52
2021/10/21 13:09:55;;;;;;;2.67;0.80;;;;;;;;;;5050085;28;20370;-53
2021/10/21 13:12:22;;;;;;;1.95;0.70;;;;;;;;;;5051490;28;20742;-49
2021/10/21 13:14:50;;;;;;;2.38;0.80;;;;;;;;;;5031777;28;20484;-49
2021/10/21 13:17:16;;;;;;;2.75;0.90;;;;;;;;;;5030390;28;21289;-48
2021/10/21 13:19:42;;;;;;;2.65;0.75;;;;;;;;;;5051753;28;20514;-47
2021/10/21 13:22:09;;;;;;;2.55;0.77;;;;;;;;;;5035355;28;20445;-47
2021/10/21 13:24:36;;;;;;;2.60;1.00;;;;;;;;;;5032588;28;20416;-47
2021/10/21 13:27:03;;;;;;;3.58;0.82;;;;;;;;;;5063733;28;20451;-49
2021/10/21 13:29:29;;;;;;;2.17;0.70;;;;;;;;;;5043252;28;20407;-46
2021/10/21 13:31:59;;;;;;;1.92;0.80;;;;;;;;;;5065527;28;20366;-46
2021/10/21 13:34:25;;;;;;;1.80;0.70;;;;;;;;;;5047994;28;20417;-49
2021/10/21 13:36:52;;;;;;;2.95;0.80;;;;;;;;;;5030901;28;20390;-50
2021/10/21 13:39:18;;;;;;;1.50;0.60;;;;;;;;;;5049132;28;20392;-50
2021/10/21 13:41:44;;;;;;;2.53;0.80;;;;;;;;;;5041048;28;20428;-49
2021/10/21 13:44:11;;;;;;;2.50;0.80;;;;;;;;;;5049736;28;20374;-48
2021/10/21 13:46:38;;;;;;;2.97;1.08;;;;;;;;;;5036231;28;20461;-45
2021/10/21 13:49:04;;;;;;;2.63;0.80;;;;;;;;;;5057067;28;20373;-48
2021/10/21 13:51:31;;;;;;;1.90;0.60;;;;;;;;;;5044507;28;20385;-47
2021/10/21 13:53:58;;;;;;;3.00;0.70;;;;;;;;;;5049661;28;20908;-48
2021/10/21 13:56:24;;;;;;;2.10;0.60;;;;;;;;;;5062842;28;20389;-46
2021/10/21 13:58:50;;;;;;;2.25;0.63;;;;;;;;;;5061750;28;20788;-46
2021/10/21 14:01:23;;;;;;;2.03;0.70;;;;;;;;;;5055795;28;20416;-50
2021/10/21 14:03:49;;;;;;;2.15;0.68;;;;;;;;;;5033159;28;20445;-46
2021/10/21 14:06:17;;;;;;;2.28;0.80;;;;;;;;;;5048131;28;20381;-46
2021/10/21 14:08:44;;;;;;;2.60;0.87;;;;;;;;;;5047711;28;20374;-45
2021/10/21 14:11:10;;;;;;;3.40;1.03;;;;;;;;;;5049510;28;20401;-47
2021/10/21 14:13:37;;;;;;;2.90;1.00;;;;;;;;;;5045899;28;20377;-48
2021/10/21 14:16:03;;;;;;;2.63;0.90;;;;;;;;;;5028747;28;20532;-51
2021/10/21 14:18:29;;;;;;;3.53;1.10;;;;;;;;;;5047321;28;20431;-49
2021/10/21 14:20:56;;;;;;;2.50;1.00;;;;;;;;;;5028221;28;20414;-51
2021/10/21 14:23:22;;;;;;;2.25;1.15;;;;;;;;;;5030883;28;20390;-50
2021/10/21 14:25:48;;;;;;;3.33;1.20;;;;;;;;;;5049224;28;20453;-48
2021/10/21 14:28:14;;;;;;;2.42;1.08;;;;;;;;;;5048996;28;20504;-47
2021/10/21 14:30:40;;;;;;;3.83;1.10;;;;;;;;;;5049174;28;20366;-48
2021/10/21 14:33:06;;;;;;;3.85;1.10;;;;;;;;;;5048873;28;20392;-48
2021/10/21 14:35:32;;;;;;;3.67;1.23;;;;;;;;;;5036914;28;20380;-47
2021/10/21 14:37:59;;;;;;;2.42;0.90;;;;;;;;;;5050085;28;20435;-47
2021/10/21 14:40:25;;;;;;;2.53;1.15;;;;;;;;;;5052803;28;20384;-48
2021/10/21 14:42:51;;;;;;;2.77;0.97;;;;;;;;;;5059232;28;20424;-49
2021/10/21 14:45:17;;;;;;;3.40;1.10;;;;;;;;;;5028966;28;20397;-47
2021/10/21 14:47:45;;;;;;;2.88;1.02;;;;;;;;;;5025398;28;20456;-48
2021/10/21 14:50:12;;;;;;;3.43;1.20;;;;;;;;;;5030533;28;20386;-47
2021/10/21 14:52:38;;;;;;;2.05;0.82;;;;;;;;;;5032575;28;20404;-50
2021/10/21 14:55:04;;;;;;;3.00;0.98;;;;;;;;;;5027818;28;20924;-49
2021/10/21 14:57:31;;;;;;;4.20;1.40;;;;;;;;;;5027496;28;20385;-51
2021/10/21 14:59:57;;;;;;;2.53;1.00;;;;;;;;;;5048626;28;20393;-49
2021/10/21 15:02:24;;;;;;;2.70;1.10;;;;;;;;;;5032674;28;20731;-49
2021/10/21 15:04:51;;;;;;;2.63;0.90;;;;;;;;;;5059303;28;20499;-46
2021/10/21 15:12:54;;;;;;;2.13;0.90;;;;;;;;;;5050663;28;20405;-47
2021/10/21 15:23:22;;;;;;;2.67;1.15;;;;;;;;;;5046458;28;20428;-47
2021/10/21 15:25:53;;;;;;;3.88;1.30;;;;;;;;;;5048543;28;20377;-47
2021/10/21 15:28:19;;;;;;;3.50;1.23;;;;;;;;;;5026136;28;20455;-47
2021/10/21 15:30:45;;;;;;;4.47;1.33;;;;;;;;;;5031960;28;20937;-48
2021/10/21 15:33:11;;;;;;;3.92;1.40;;;;;;;;;;5050955;28;20480;-47
2021/10/21 15:35:38;;;;;;;2.28;1.17;;;;;;;;;;5016715;28;21184;-45
2021/10/21 15:38:04;;;;;;;3.08;1.30;;;;;;;;;;5040658;28;20410;-45
2021/10/21 15:40:31;;;;;;;3.40;1.38;;;;;;;;;;5043249;28;20394;-45
2021/10/21 15:42:57;;;;;;;3.13;1.17;;;;;;;;;;5067292;28;20466;-44
2021/10/21 15:47:55;;;;;;;3.53;1.42;;;;;;;;;;5048959;28;20399;-46
2021/10/21 16:14:33;;;;;;;4.47;1.38;;;;;;;;;;5056702;28;20371;-47
2021/10/21 16:17:01;;;;;;;3.85;1.40;;;;;;;;;;5042879;28;20437;-46
2021/10/21 16:19:27;;;;;;;3.90;1.42;;;;;;;;;;5046234;28;20387;-46
2021/10/21 16:21:58;;;;;;;3.28;1.23;;;;;;;;;;5036550;28;20493;-45
2021/10/21 16:24:29;;;;;;;3.72;1.20;;;;;;;;;;5047957;28;20385;-46
2021/10/21 16:29:32;;;;;;;3.13;1.30;;;;;;;;;;5036478;28;20395;-49
2021/10/21 16:31:58;;;;;;;3.90;1.33;;;;;;;;;;5034541;28;20403;-50
2021/10/21 16:34:24;;;;;;;4.20;1.80;;;;;;;;;;5037876;28;20455;-46
2021/10/21 16:36:50;;;;;;;4.55;1.63;;;;;;;;;;5035123;28;20439;-48
2021/10/21 16:39:17;;;;;;;3.13;1.27;;;;;;;;;;5015056;28;20801;-48
2021/10/21 16:41:43;;;;;;;3.80;1.40;;;;;;;;;;5035475;28;20474;-46
2021/10/21 16:44:09;;;;;;;4.57;1.52;;;;;;;;;;5017524;28;20400;-46
2021/10/21 16:46:36;;;;;;;3.90;1.40;;;;;;;;;;5014576;28;20404;-49
2021/10/21 16:49:03;;;;;;;4.33;1.50;;;;;;;;;;5034023;28;20383;-42
2021/10/21 16:51:30;;;;;;;3.95;1.50;;;;;;;;;;5031012;28;20380;-43
2021/10/21 16:53:57;;;;;;;3.65;1.50;;;;;;;;;;5041135;28;20433;-42
2021/10/21 16:56:23;;;;;;;3.70;1.60;;;;;;;;;;5062928;28;20443;-43
2021/10/21 16:58:50;;;;;;;3.60;1.50;;;;;;;;;;5049331;28;20454;-44
2021/10/21 17:01:16;;;;;;;3.65;1.50;;;;;;;;;;5034855;28;20528;-45
2021/10/21 17:03:42;;;;;;;4.25;1.52;;;;;;;;;;5062693;28;20386;-45
2021/10/21 17:06:08;;;;;;;3.38;1.52;;;;;;;;;;5028787;28;20884;-46
2021/10/21 17:08:36;;;;;;;4.85;1.60;;;;;;;;;;5044056;28;20905;-50
2021/10/21 17:11:05;;;;;;;4.60;1.63;;;;;;;;;;5047508;28;20377;-52
2021/10/21 17:13:31;;;;;;;3.28;1.30;;;;;;;;;;5046749;28;20503;-53
2021/10/21 17:15:57;;;;;;;4.68;1.55;;;;;;;;;;5046637;28;20460;-53
2021/10/21 17:18:23;;;;;;;3.75;1.40;;;;;;;;;;5047754;28;20524;-56
2021/10/21 17:20:49;;;;;;;4.90;1.90;;;;;;;;;;5036983;28;20423;-50
2021/10/21 17:23:15;;;;;;;4.93;1.63;;;;;;;;;;5044961;28;20386;-53
2021/10/21 17:25:42;;;;;;;6.22;1.70;;;;;;;;;;5042739;28;20961;-50
2021/10/21 17:28:08;;;;;;;4.28;1.80;;;;;;;;;;5048444;28;20382;-51
2021/10/21 17:30:34;;;;;;;4.97;1.83;;;;;;;;;;5038819;28;20764;-52
2021/10/21 17:33:06;;;;;;;4.55;1.70;;;;;;;;;;5041229;28;20396;-54
2021/10/21 17:35:32;;;;;;;4.57;1.70;;;;;;;;;;5041969;28;20408;-56
2021/10/21 17:37:59;;;;;;;4.73;1.70;;;;;;;;;;5043673;28;20400;-55
2021/10/21 17:40:25;;;;;;;4.95;1.75;;;;;;;;;;5036269;28;20470;-56
2021/10/21 17:42:57;;;;;;;4.32;1.60;;;;;;;;;;5048168;28;20578;-56
2021/10/21 17:45:23;;;;;;;4.32;1.70;;;;;;;;;;5046413;28;20362;-55
2021/10/21 17:47:49;;;;;;;4.15;1.73;;;;;;;;;;5048133;28;20663;-54
2021/10/21 17:50:15;;;;;;;5.23;1.77;;;;;;;;;;5048513;28;20396;-55
2021/10/21 17:52:42;;;;;;;6.77;2.07;;;;;;;;;;5047458;28;20374;-54
2021/10/21 17:55:08;;;;;;;5.22;1.92;;;;;;;;;;5041210;28;20408;-55
2021/10/21 17:57:34;;;;;;;4.75;1.80;;;;;;;;;;5029674;28;20496;-54
2021/10/21 18:00:00;;;;;;;5.20;1.95;;;;;;;;;;5030363;28;20400;-54
2021/10/21 18:02:27;;;;;;;4.50;1.80;;;;;;;;;;5055098;28;20441;-57
2021/10/21 18:04:53;;;;;;;5.00;1.90;;;;;;;;;;5028246;28;20384;-57
2021/10/21 18:07:19;;;;;;;4.88;2.20;;;;;;;;;;5047699;28;20369;-55
2021/10/21 18:09:48;;;;;;;5.40;2.13;;;;;;;;;;5059356;28;20387;-55
2021/10/21 18:12:15;;;;;;;5.85;2.15;;;;;;;;;;5029067;28;20439;-55
2021/10/21 18:14:41;;;;;;;4.68;1.90;;;;;;;;;;5029093;28;20385;-57
2021/10/21 18:17:07;;;;;;;5.28;1.90;;;;;;;;;;5034987;28;20512;-55
2021/10/21 18:19:34;;;;;;;4.38;1.92;;;;;;;;;;5022908;28;20391;-59
2021/10/21 18:22:01;;;;;;;5.63;2.17;;;;;;;;;;5030495;28;20849;-55
2021/10/21 18:24:27;;;;;;;4.45;1.90;;;;;;;;;;5046277;28;20382;-55
2021/10/21 18:26:54;;;;;;;5.40;2.10;;;;;;;;;;5040944;28;20378;-48
2021/10/21 18:29:20;;;;;;;8.48;2.20;;;;;;;;;;5030828;28;20385;-53
2021/10/21 18:31:47;;;;;;;4.80;2.03;;;;;;;;;;5054337;28;20374;-53
2021/10/21 18:34:13;;;;;;;6.97;2.27;;;;;;;;;;5053961;28;20374;-53
2021/10/21 18:36:40;;;;;;;4.43;2.10;;;;;;;;;;5064955;28;20368;-58
2021/10/21 18:39:10;;;;;;;6.05;2.08;;;;;;;;;;5047950;28;20478;-54
2021/10/21 18:41:39;;;;;;;5.32;1.90;;;;;;;;;;5036912;28;20405;-53
2021/10/21 18:44:06;;;;;;;5.47;2.40;;;;;;;;;;5046217;28;20470;-55
2021/10/21 18:46:32;;;;;;;5.35;2.20;;;;;;;;;;5027952;28;20424;-51
2021/10/21 18:48:58;;;;;;;6.18;2.20;;;;;;;;;;5072043;28;20454;-56
2021/10/21 18:51:25;;;;;;;5.20;1.80;;;;;;;;;;5065713;28;20369;-60
2021/10/21 18:53:51;;;;;;;5.82;2.13;;;;;;;;;;5058840;28;20371;-62
2021/10/21 18:56:22;;;;;;;4.95;1.92;;;;;;;;;;5054023;28;20483;-60
2021/10/21 18:58:51;;;;;;;5.28;2.30;;;;;;;;;;5053705;28;20701;-62
2021/10/21 19:01:17;;;;;;;5.88;2.38;;;;;;;;;;5071754;28;20446;-63
2021/10/21 19:03:43;;;;;;;5.10;2.30;;;;;;;;;;5043678;28;20873;-63
2021/10/21 19:06:12;;;;;;;7.18;2.45;;;;;;;;;;5049353;28;20410;-64
2021/10/21 19:08:39;;;;;;;5.35;2.38;;;;;;;;;;5047848;28;20726;-63
2021/10/21 19:11:06;;;;;;;5.20;2.00;;;;;;;;;;5064892;28;20399;-64
2021/10/21 19:13:33;;;;;;;4.45;2.38;;;;;;;;;;5051068;28;20441;-50
2021/10/21 19:15:59;;;;;;;4.77;2.10;;;;;;;;;;5032828;28;20375;-61
2021/10/21 19:18:29;;;;;;;5.05;2.20;;;;;;;;;;5056643;28;20393;-61
2021/10/21 19:20:57;;;;;;;4.93;2.33;;;;;;;;;;5038747;28;20435;-63
2021/10/21 19:23:23;;;;;;;4.97;2.17;;;;;;;;;;5058747;28;20487;-64
2021/10/21 19:25:53;;;;;;;5.97;2.20;;;;;;;;;;5064675;28;20377;-63
2021/10/21 19:28:22;;;;;;;5.77;2.27;;;;;;;;;;5064380;28;20393;-63
2021/10/21 19:30:49;;;;;;;5.90;2.20;;;;;;;;;;5040301;28;20383;-63
2021/10/21 19:33:15;;;;;;;4.45;2.40;;;;;;;;;;5057419;28;20465;-62
2021/10/21 19:35:41;;;;;;;4.43;2.30;;;;;;;;;;5053804;28;20468;-63
2021/10/21 19:38:08;;;;;;;4.57;2.30;;;;;;;;;;5051906;28;20369;-62
2021/10/21 19:40:34;;;;;;;5.50;2.50;;;;;;;;;;5069360;28;20384;-63
2021/10/21 19:43:04;;;;;;;5.20;2.55;;;;;;;;;;5057354;28;20409;-62
2021/10/21 19:45:31;;;;;;;4.70;2.33;;;;;;;;;;5059629;28;20813;-63
2021/10/21 19:47:57;;;;;;;4.95;2.38;;;;;;;;;;5041833;28;20714;-64
2021/10/21 19:50:23;;;;;;;4.33;2.30;;;;;;;;;;5067795;28;20462;-64
2021/10/21 19:52:50;;;;;;;4.67;2.30;;;;;;;;;;5070816;28;20860;-63
2021/10/21 19:55:16;;;;;;;5.38;2.35;;;;;;;;;;5067043;28;20481;-63
2021/10/21 19:57:42;;;;;;;4.47;2.50;;;;;;;;;;5060223;28;20367;-63
2021/10/21 20:00:11;;;;;;;4.30;2.43;;;;;;;;;;5034859;28;20940;-64
2021/10/21 20:02:37;;;;;;;5.68;2.40;;;;;;;;;;5061642;28;20470;-64
2021/10/21 20:05:04;;;;;;;4.53;2.20;;;;;;;;;;5057486;28;20372;-63
2021/10/21 20:07:30;;;;;;;4.75;2.25;;;;;;;;;;5059289;28;20441;-63
2021/10/21 20:09:58;;;;;;;4.20;2.40;;;;;;;;;;5064034;28;20374;-64
2021/10/21 20:12:29;;;;;;;5.28;2.67;;;;;;;;;;5051493;28;20378;-63
2021/10/21 20:14:59;;;;;;;4.40;2.40;;;;;;;;;;5056355;28;20681;-62
2021/10/21 20:17:25;;;;;;;4.47;2.40;;;;;;;;;;5063277;28;20423;-63
2021/10/21 20:19:54;;;;;;;4.72;2.22;;;;;;;;;;5070408;28;20434;-61
2021/10/21 20:22:24;;;;;;;5.18;2.58;;;;;;;;;;5069258;28;20468;-62
2021/10/21 20:24:50;;;;;;;5.25;2.60;;;;;;;;;;5070227;28;20461;-61
2021/10/21 20:27:16;;;;;;;5.68;2.67;;;;;;;;;;5056538;28;21228;-60
2021/10/21 20:29:43;;;;;;;4.05;2.50;;;;;;;;;;5052449;28;20769;-61
2021/10/21 20:32:09;;;;;;;5.88;2.90;;;;;;;;;;5070356;28;20884;-60
2021/10/21 20:34:35;;;;;;;5.75;2.70;;;;;;;;;;5070495;28;20383;-61
2021/10/21 20:37:01;;;;;;;7.07;2.92;;;;;;;;;;5070559;28;20444;-61
2021/10/21 20:39:27;;;;;;;5.20;2.67;;;;;;;;;;5070287;28;20368;-60
2021/10/21 20:41:53;;;;;;;5.40;2.70;;;;;;;;;;5053817;28;20596;-62
2021/10/21 20:44:19;;;;;;;5.00;2.80;;;;;;;;;;5069723;28;20372;-62
2021/10/21 20:46:45;;;;;;;5.20;2.80;;;;;;;;;;5043138;28;20910;-62
2021/10/21 20:49:12;;;;;;;4.40;2.70;;;;;;;;;;5039194;28;20868;-62
2021/10/21 20:51:41;;;;;;;5.03;3.10;;;;;;;;;;5055966;28;20489;-63
2021/10/21 20:54:08;;;;;;;5.07;2.80;;;;;;;;;;5061688;28;20369;-62
2021/10/21 20:56:39;;;;;;;4.70;2.50;;;;;;;;;;5051179;28;20373;-63
2021/10/21 20:59:05;;;;;;;4.75;2.55;;;;;;;;;;5060386;28;20889;-62
2021/10/21 21:01:32;;;;;;;5.15;2.63;;;;;;;;;;5049340;28;20878;-63
2021/10/21 21:04:00;;;;;;;4.78;2.65;;;;;;;;;;5059022;28;20372;-63
2021/10/21 21:06:26;;;;;;;5.93;2.85;;;;;;;;;;5053285;28;20470;-63
2021/10/21 21:08:52;;;;;;;5.05;2.70;;;;;;;;;;5058825;28;20376;-63
2021/10/21 21:11:19;;;;;;;4.45;2.35;;;;;;;;;;5054282;28;20379;-62
2021/10/21 21:13:45;;;;;;;4.90;2.40;;;;;;;;;;5047041;28;20704;-63
2021/10/21 21:16:11;;;;;;;4.85;2.40;;;;;;;;;;5050516;28;20370;-63
2021/10/21 21:18:37;;;;;;;4.32;2.40;;;;;;;;;;5036596;28;20385;-63
2021/10/21 21:21:04;;;;;;;5.28;2.47;;;;;;;;;;5049320;28;20447;-62
2021/10/21 21:23:32;;;;;;;5.00;2.65;;;;;;;;;;5048805;28;20365;-63
2021/10/21 21:25:58;;;;;;;4.20;2.40;;;;;;;;;;5049127;28;20690;-63
2021/10/21 21:28:24;;;;;;;5.18;2.70;;;;;;;;;;5048747;28;20373;-60
2021/10/21 21:30:51;;;;;;;4.75;2.20;;;;;;;;;;5049329;28;20412;-63
2021/10/21 21:33:20;;;;;;;6.03;2.65;;;;;;;;;;5047913;28;20417;-63
2021/10/21 21:35:46;;;;;;;4.53;2.28;;;;;;;;;;5063765;28;20371;-63
2021/10/21 21:38:13;;;;;;;4.40;2.43;;;;;;;;;;5068751;28;20521;-63
2021/10/21 21:40:39;;;;;;;4.65;2.28;;;;;;;;;;5068547;28;20508;-63
2021/10/21 21:43:05;;;;;;;4.63;2.33;;;;;;;;;;5050663;28;20504;-62
2021/10/21 21:45:31;;;;;;;4.53;2.15;;;;;;;;;;5058679;28;20379;-63
2021/10/21 21:47:57;;;;;;;4.28;2.42;;;;;;;;;;5055044;28;20680;-63
2021/10/21 21:50:25;;;;;;;5.60;2.37;;;;;;;;;;5048770;28;20373;-63